Tiempo atmosférico en la estación meteorológica de Bielsa, Huesca (990 m.)



Fecha
DESCASC
Temp. máxima en grados centígrados (hora)
DESCASC
Temp. mínima en grados centígrados (hora)
DESCASC
Temp. media en grados centígrados
DESCASC
Racha de viento máxima en m/sg (hora)
DESCASC
Velocidad máxima media en intervalos de 10 minutos(hora)
DESCASC
Precipitaciones diarias en mm
DESCASC
Precipitaciones de 00:00 a 06:00 en mm
DESCASC
Precipitaciones de 06:00 a 12:00 en mm
DESCASC
Precipitaciones de 12:00 a 18:00 en mm
DESCASC
Precipitaciones de 18:00 a 24:00 en mm
DESCASC
20-09-2018 26.9 (14:00) 10.4 (07:10) 18.6 8.61 (18:50) 3.61 (18:50) 2.2 0 0 0 2.2
19-09-2018 26.7 (14:50) 10 (07:30) 18.4 9.44 (14:00) 3.06 (14:00) 0 0 0 0 0
18-09-2018 25.6 (14:50) 10.9 (07:10) 18.3 9.17 (17:40) 3.33 (18:00) 0.2 0 0 0 0.2
17-09-2018 27.7 (15:30) 12 (05:20) 19.9 8.89 (20:40) 3.89 (20:40) 5.6 0 0 0 5.6
16-09-2018 27.4 (16:30) 12.2 (00:00) 19.8 8.89 (13:50) 3.06 (14:30) 0 0 0 0 0
15-09-2018 25.3 (15:00) 11.7 (00:00) 18.5 8.61 (16:50) 3.89 (16:50) 0 0 0 0 0
14-09-2018 26.6 (14:30) 10.7 (00:00) 18.7 12.5 (13:20) 4.17 (17:20) 0 0 0 0 0
13-09-2018 26.8 (15:30) 10.4 (00:00) 18.6 7.78 (13:20) 3.06 (14:50) 0 0 0 0 0
12-09-2018 21.2 (13:10) 12.1 (00:00) 16.7 7.5 (22:50) 2.5 (23:30) 3.6 0 0 3.6 0
11-09-2018 25.3 (15:30) 10.2 (00:00) 17.7 8.61 (13:30) 3.33 (13:30) 0 0 0 0 0
10-09-2018 26 (16:40) 9.3 (00:00) 17.7 8.61 (12:50) 2.78 (12:50) 0 0 0 0 0
09-09-2018 25 (17:00) 11.9 (00:00) 18.4 7.22 (19:00) 2.78 (19:10) 9.4 0 9.4 0 0
08-09-2018 24.7 (17:10) 10.9 (00:00) 17.8 7.5 (15:10) 3.33 (15:10) 0 0 0 0 0
07-09-2018 25.2 (15:40) 8.2 (00:00) 16.7 6.94 (12:50) 2.5 (13:40) 0.2 0.2 0 0 0
06-09-2018 21.2 (12:20) 9.4 (00:00) 15.3 12.5 (16:50) 3.89 (16:50) 19.4 0 0 19.4 0
05-09-2018 25.8 (15:30) 11.9 (00:00) 18.8 11.39 (20:10) 3.33 (20:20) 23.4 10 0 0 13.4
04-09-2018 28.3 (16:20) 11 (00:00) 19.6 8.89 (21:40) 3.89 (21:50) 2.8 2.8 0 0 0
03-09-2018 28.8 (15:00) 11 (00:00) 19.9 11.11 (22:20) 5 (12:10) 12.8 0 0 4.6 8.2
02-09-2018 28.3 (16:30) 10.5 (00:00) 19.4 8.33 (12:20) 2.78 (12:20) 0 0 0 0 0
01-09-2018 28.2 (16:50) 9.3 (00:00) 18.8 10 (13:30) 3.61 (13:30) 0 0 0 0 0
31-08-2018 27.3 (15:10) 10.6 (00:00) 18.9 8.89 (12:50) 2.78 (13:10) 0 0 0 0 0
30-08-2018 26.7 (15:10) 10.8 (00:00) 18.8 8.33 (12:50) 3.33 (12:20) 0 0 0 0 0
29-08-2018 28.7 (16:40) 12.3 (00:00) 20.5 13.61 (18:00) 5.28 (17:30) 15.2 0 0 3 12.2
28-08-2018 30.6 (14:20) 12.4 (00:00) 21.5 11.94 (22:30) 6.11 (22:20) 0.8 0 0 0 0.8
27-08-2018 29.8 (16:10) 10 (00:00) 19.9 10 (14:10) 3.06 (14:50) 0 0 0 0 0
26-08-2018 25.4 (15:30) 7.9 (00:00) 16.6 9.17 (16:50) 3.61 (15:20) 0 0 0 0 0
25-08-2018 24.4 (17:20) 7.6 (00:00) 16 9.44 (13:40) 3.33 (14:10) 0 0 0 0 0
24-08-2018 26 (14:30) 8.4 (00:00) 17.2 11.94 (19:00) 5.28 (19:30) 0 0 0 0 0

Gráficas

Temp. máximas Temp. mínimas Temp. medias Precipitaciones Rachas de viento máximas Velocidades máximas media en intervalos de 10 minutos

Datos horarios

Fecha y hora oficial Temperatura (ºC) Velocidad del viento (km/h) Dirección del viento Racha (km/h) Dirección de racha Precipitación (mm) Presión (hPa) Tendencia (hPa) Humedad (%)
2018-09-22 23:00:00 14.7 2 Oeste 14 Noroeste 0 912.6 1.5 88
2018-09-22 22:00:00 15.6 0 Calma 12 Norte 0 912.3 1.8 87
2018-09-22 21:00:00 16.5 6 Norte 18 Norte 0 911.8 1.8 83
2018-09-22 20:00:00 17.1 0 Calma 6 Noroeste 0 911.1 1.5 86
2018-09-22 19:00:00 18.7 2 Noroeste 9 Noroeste 0 910.5 0.7 79
2018-09-22 18:00:00 20.4 3 Noroeste 8 Noroeste 0 910 0.1 71
2018-09-22 17:00:00 24.8 2 Sur 17 Sur 0 909.6 -0.6 53
2018-09-22 16:00:00 28.1 5 Sudeste 24 Sudeste 0 909.8 -0.9 37
2018-09-22 15:00:00 27.8 8 Sudeste 28 Sur 0 909.9 -1.2 37
2018-09-22 14:00:00 27.4 9 Sur 28 Sur 0 910.2 -1 35
2018-09-22 13:00:00 25.5 8 Sudeste 21 Sur 0 910.7 -0.4 42
2018-09-22 12:00:00 22.4 4 Sudeste 16 Sudeste 0 911.1 0 52
2018-09-22 11:00:00 17.5 2 Sudeste 6 Sudeste 0 911.2 0.5 75
2018-09-22 10:00:00 13.7 0 Calma 10 Noroeste 0 911.1 0.6 90
2018-09-22 09:00:00 10.6 0 Calma 13 Noroeste 0 911.1 1 98
2018-09-22 08:00:00 9.9 0 Calma 6 Noroeste 0 910.7 0.6 98
2018-09-22 07:00:00 10 0 Calma 9 Noroeste 0 910.5 0.3 97
2018-09-22 06:00:00 10.4 2 Noroeste 10 Noroeste 0 910.1 0 96
2018-09-22 05:00:00 10.9 4 Noroeste 10 Noroeste 0 910.1 -0.1 94
2018-09-22 04:00:00 11.3 2 Noroeste 8 Noroeste 0 910.2 -0.1 94
2018-09-22 03:00:00 12.2 3 Oeste 18 Noroeste 0 910.1 -0.1 88
2018-09-22 02:00:00 12.7 4 Noroeste 15 Noroeste 0 910.2 0.3 90
2018-09-22 01:00:00 13.4 2 Noroeste 14 Noroeste 0 910.3 0.5 89
2018-09-22 00:00:00 14.8 5 Noroeste 20 Norte 0 910.2 1.2 83
2018-09-21 23:00:00 15.1 3 Noroeste 10 Noroeste 0 909.9 1.6 87
2018-09-21 22:00:00 16.7 5 Norte 23 Norte 0 909.8 1.9 77
2018-09-21 21:00:00 16.2 5 Noroeste 13 Noroeste 0 909 2.2 84
2018-09-21 20:00:00 18.8 4 Norte 32 Noroeste 0 908.3 1.9 72
2018-09-21 19:00:00 21 11 Noroeste 32 Noroeste 0 907.9 1.4 58
2018-09-21 18:00:00 19.9 4 Noroeste 16 Nordeste 0 906.8 -0.2 72
2018-09-21 17:00:00 23.2 3 Noroeste 15 Norte 0 906.4 -1 65
2018-09-21 16:00:00 24.4 2 Oeste 5 Norte 0 906.5 -1.4 66
2018-09-21 15:00:00 23.9 0 Calma 15 Este 0 907 -1 69
2018-09-21 14:00:00 24.4 4 Sudeste 14 Sur 0 907.4 -0.7 55
2018-09-21 13:00:00 21.7 2 Sudeste 8 Sudeste 0 907.9 -0.4 73
2018-09-21 12:00:00 20.7 3 Sudeste 7 Sudeste 0 908 -0.1 74
2018-09-21 11:00:00 18.2 3 Norte 7 Noroeste 0 908.1 0.1 81
2018-09-21 10:00:00 15.4 0 Calma 17 Norte 0 908.3 0.7 97
2018-09-21 09:00:00 13.1 2 Noroeste 10 Noroeste 0 908.1 0.5 98
2018-09-21 08:00:00 11.8 2 Noroeste 11 Noroeste 0 908 0.3 98
2018-09-21 07:00:00 12 2 Oeste 12 Noroeste 0.2 907.6 -0.4 98
2018-09-21 06:00:00 12 2 Noroeste 8 Noroeste 0 907.6 -0.7 98
2018-09-21 05:00:00 12.2 0 Calma 8 Noroeste 0 907.7 -0.8 98
2018-09-21 04:00:00 12.7 2 Noroeste 14 Norte 0 908 -0.6 98
2018-09-21 03:00:00 12.9 0 Calma 10 Norte 0 908.3 -0.3 98
2018-09-21 02:00:00 13.1 0 Calma 15 Norte 0 908.5 0 98
2018-09-21 01:00:00 13.4 2 Noroeste 9 Noroeste 0 908.6 -0.1 98
2018-09-21 00:00:00 13.9 2 Noroeste 13 Norte 0 908.6 0.3 98
2018-09-20 23:00:00 14.6 6 Norte 17 Norte 0 908.5 0.7 98
2018-09-20 22:00:00 15.2 2 Noroeste 18 Norte 0 908.7 1 97
2018-09-20 21:00:00 15.8 2 Noroeste 6 Norte 0 908.3 1.5 96
2018-09-20 20:00:00 17.4 0 Calma 20 Norte 1 907.8 0.9 94
2018-09-20 19:00:00 18.4 11 Norte 31 Noroeste 1.2 907.7 0.5 85
2018-09-20 18:00:00 19.8 3 Noroeste 6 Noroeste 0 906.8 -0.8 79
2018-09-20 17:00:00 23.5 2 Noroeste 12 Noroeste 0 906.9 -1.2 62
2018-09-20 16:00:00 26.3 2 Sur 10 Sudeste 0 907.2 -1.6 52
2018-09-20 15:00:00 23.5 3 Sur 24 Sur 0 907.6 -1.7 61
2018-09-20 14:00:00 26.9 8 Sudeste 24 Sudeste 0 908.1 -1.7 45
2018-09-20 13:00:00 25.3 9 Sudeste 23 Este 0 908.8 -1.2 49
2018-09-20 12:00:00 22.6 3 Sudeste 8 Este 0 909.3 -1.1 57
2018-09-20 11:00:00 17.4 0 Calma 14 Noroeste 0 909.8 -0.7 78
2018-09-20 10:00:00 13.8 0 Calma 8 Noroeste 0 910 -0.3 97
2018-09-20 09:00:00 10.8 0 Calma 13 Sudoeste 0 910.4 -0.1 98
2018-09-20 08:00:00 10.6 2 Noroeste 9 Oeste 0 910.5 -0.1 98
2018-09-20 07:00:00 10.5 2 Oeste 9 Noroeste 0 910.3 -0.5 98
2018-09-20 06:00:00 10.6 0 Calma 8 Oeste 0 910.5 -0.3 98
2018-09-20 05:00:00 10.8 0 Calma 16 Nordeste 0 910.6 -0.4 98
2018-09-20 04:00:00 11.3 2 Oeste 13 Norte 0 910.8 -0.4 97
2018-09-20 03:00:00 12 5 Noroeste 13 Noroeste 0 910.8 -0.2 98
2018-09-20 02:00:00 11.9 0 Calma 7 Oeste 0 911 0.2 97
2018-09-20 01:00:00 12.6 0 Calma 10 Noroeste 0 911.2 0.7 95
2018-09-20 00:00:00 13.8 5 Noroeste 17 Noroeste 0 911 1 92
2018-09-19 23:00:00 14.2 3 Noroeste 13 Noroeste 0 910.8 1.2 94
2018-09-19 22:00:00 15.1 0 Calma 9 Noroeste 0 910.5 1.2 93
2018-09-19 21:00:00 16.1 2 Noroeste 11 Noroeste 0 910 1.5 91
2018-09-19 20:00:00 17.4 2 Oeste 16 Nordeste 0 909.6 1.4 87
2018-09-19 19:00:00 18.9 2 Noroeste 18 Norte 0 909.3 0.9 81
2018-09-19 18:00:00 20.4 3 Noroeste 10 Sur 0 908.5 -0.2 77
2018-09-19 17:00:00 24 3 Sur 21 Sudeste 0 908.2 -0.9 60
2018-09-19 16:00:00 26.5 8 Sudeste 25 Sur 0 908.4 -1.1 44
2018-09-19 15:00:00 26.2 10 Sudeste 29 Este 0 908.7 -1.1 43
2018-09-19 14:00:00 25 11 Sudeste 34 Este 0 909.1 -0.9 42
2018-09-19 13:00:00 23.9 6 Sudeste 24 Sur 0 909.5 -0.4 51
2018-09-19 12:00:00 21 8 Sudeste 22 Sur 0 909.8 0 60
2018-09-19 11:00:00 16 3 Sudeste 17 Nordeste 0 910 0.3 83
2018-09-19 10:00:00 13.4 3 Norte 8 Noroeste 0 909.9 0.6 95
2018-09-19 09:00:00 10.5 0 Calma 14 Norte 0 909.8 0.9 98
2018-09-19 08:00:00 10.2 3 Noroeste 10 Noroeste 0 909.7 1.3 98
2018-09-19 07:00:00 10.2 0 Calma 4 Sudoeste 0 909.3 1.1 98
2018-09-19 06:00:00 10.7 0 Calma 10 Noroeste 0 908.9 0.4 98
2018-09-19 05:00:00 11.3 0 Calma 8 Norte 0 908.4 -0.2 98
2018-09-19 04:00:00 12.2 0 Calma 13 Norte 0 908.2 -0.3 97
2018-09-19 03:00:00 13.2 4 Noroeste 17 Norte 0 908.5 -0.5 96
2018-09-19 02:00:00 13.6 4 Noroeste 15 Norte 0 908.6 -0.5 96
2018-09-19 01:00:00 14.7 5 Norte 19 Noroeste 0 908.5 -0.4 94
2018-09-19 00:00:00 15 2 Norte 8 Noroeste 0 909 0.8 97
2018-09-18 23:00:00 15.7 2 Sudeste 6 Norte 0 909.1 1.9 97
2018-09-18 22:00:00 15.7 4 Nordeste 6 Nordeste 0 908.9 2.4 97
2018-09-18 21:00:00 16 0 Calma 14 Nordeste 0 908.2 2.7 94
2018-09-18 20:00:00 16.5 0 Calma 17 Norte 0.2 907.2 2.4 91
2018-09-18 19:00:00 17.3 4 Noroeste 22 Noroeste 0 906.5 2 88
2018-09-18 18:00:00 20 12 Noroeste 33 Noroeste 0 905.5 0.7 64
2018-09-18 17:00:00 22.4 3 Noroeste 19 Sudeste 0 904.8 -0.5 72
2018-09-18 16:00:00 23.2 4 Sudeste 21 Sudeste 0 904.5 -1.2 60
2018-09-18 15:00:00 24.7 5 Sudeste 21 Sudeste 0 904.8 -1.7 51
2018-09-18 14:00:00 25.3 4 Sudeste 20 Sur 0 905.3 -1.9 49
2018-09-18 13:00:00 23.9 4 Sudeste 13 Sur 0 905.7 -1.4 58
2018-09-18 12:00:00 21.3 3 Sudeste 8 Noroeste 0 906.5 -0.4 60
2018-09-18 11:00:00 16.9 4 Noroeste 9 Norte 0 907.2 0.9 82
2018-09-18 10:00:00 14.2 0 Calma 12 Noroeste 0 907.1 0.9 91
2018-09-18 09:00:00 12.2 0 Calma 11 Norte 0 906.9 0.5 98
2018-09-18 08:00:00 11.5 3 Noroeste 15 Norte 0 906.3 -0.3 98
2018-09-18 07:00:00 11 3 Noroeste 11 Norte 0 906.2 -0.7 98
2018-09-18 06:00:00 11.4 2 Noroeste 15 Noroeste 0 906.4 -0.9 97
2018-09-18 05:00:00 11.4 3 Oeste 18 Norte 0 906.6 -1.1 97
2018-09-18 04:00:00 11.4 4 Norte 15 Norte 0 906.9 -1.2 98
2018-09-18 03:00:00 11.6 6 Norte 20 Norte 0 907.3 -0.7 98
2018-09-18 02:00:00 11.9 4 Norte 15 Norte 0 907.7 -0.9 97
2018-09-18 01:00:00 12.4 2 Oeste 9 Norte 0 908.1 -0.8 97
2018-09-18 00:00:00 13.3 0 Calma 14 Nordeste 0 908 0.7 96
2018-09-17 23:00:00 13.7 0 Calma 24 Norte 0.2 908.6 2.7 95
2018-09-17 22:00:00 14.1 7 Norte 28 Norte 5.4 908.9 3.2 90
2018-09-17 21:00:00 18.5 11 Noroeste 32 Oeste 0 907.3 1.7 63
2018-09-17 20:00:00 18 4 Sudeste 14 Norte 0 905.9 -0.2 82
2018-09-17 19:00:00 19 2 Norte 7 Norte 0 905.7 -0.8 74
2018-09-17 18:00:00 20.4 2 Noroeste 8 Oeste 0 905.6 -1.4 67
2018-09-17 17:00:00 25.7 2 Sudoeste 18 Sur 0 906.1 -1.4 48
2018-09-17 16:00:00 27.2 8 Sudeste 23 Sudeste 0 906.5 -1.6 34
2018-09-17 15:00:00 27.3 6 Sudeste 25 Sudeste 0 907 -1.6 39
2018-09-17 14:00:00 25.4 6 Sudeste 28 Este 0 907.5 -1.6 44
2018-09-17 13:00:00 25.9 8 Sudeste 21 Sur 0 908.1 -1.5 42
2018-09-17 12:00:00 23.7 4 Sudeste 11 Sur 0 908.6 -1.3 53
2018-09-17 11:00:00 18.7 2 Sudeste 16 Noroeste 0 909.1 -0.7 78
2018-09-17 10:00:00 16.4 3 Noroeste 10 Noroeste 0 909.6 0 86
2018-09-17 09:00:00 13.4 2 Noroeste 14 Norte 0 909.9 0.2 98
2018-09-17 08:00:00 12.2 3 Noroeste 8 Norte 0 909.8 -0.1 98
2018-09-17 07:00:00 12.2 0 Calma 15 Sudeste 0 909.6 -0.3 98
2018-09-17 06:00:00 12.2 0 Calma 10 Norte 0 909.7 -0.2 98
2018-09-17 05:00:00 12.2 3 Noroeste 6 Noroeste 0 909.9 -0.4 98
2018-09-17 04:00:00 12.4 2 Norte 6 Noroeste 0 909.9 -0.5 97
2018-09-17 03:00:00 13 2 Noroeste 10 Nordeste 0 909.9 -0.4 95
2018-09-17 02:00:00 13.3 3 Noroeste 12 Norte 0 910.3 -0.3 94
2018-09-17 01:00:00 13.8 4 Noroeste 11 Norte 0 910.4 0.1 94
2018-09-17 00:00:00 14.8 3 Norte 9 Norte 0 910.3 0.4 91
2018-09-16 23:00:00 15.2 3 Noroeste 11 Norte 0 910.6 1.6 91
2018-09-16 22:00:00 16.3 3 Noroeste 17 Norte 0 910.3 2 86
2018-09-16 21:00:00 16.4 4 Noroeste 12 Noroeste 0 909.9 2.2 88
2018-09-16 20:00:00 17.6 2 Noroeste 10 Oeste 0 909 1.4 85
2018-09-16 19:00:00 19.7 3 Noroeste 13 Norte 0 908.3 0.6 75
2018-09-16 18:00:00 22.3 2 Noroeste 17 Sur 0 907.7 -0.2 69
2018-09-16 17:00:00 26.7 4 Sudeste 19 Sudeste 0 907.6 -0.6 47
2018-09-16 16:00:00 26.9 6 Sudeste 30 Sur 0 907.7 -1 46
2018-09-16 15:00:00 26.3 10 Sudeste 29 Sur 0 907.9 -1.1 48
2018-09-16 14:00:00 25.4 9 Sudeste 32 Sudeste 0 908.2 -1.2 50
2018-09-16 13:00:00 24 8 Sudeste 30 Este 0 908.7 -1.3 56
2018-09-16 12:00:00 22.4 7 Sudeste 23 Sur 0 909 -1.2 60
2018-09-16 11:00:00 18.2 3 Sudeste 10 Este 0 909.4 -0.6 79
2018-09-16 10:00:00 15.6 0 Calma 15 Este 0 910 0.4 85
2018-09-16 09:00:00 13.8 4 Norte 11 Norte 0 910.2 1 96
2018-09-16 08:00:00 12.2 0 Calma 7 Noroeste 0 910 1.1 98
2018-09-16 07:00:00 12.4 0 Calma 15 Norte 0 909.6 0.4 98
2018-09-16 06:00:00 12.5 0 Calma 4 Norte 0 909.2 -0.5 98
2018-09-16 05:00:00 12.8 0 Calma 10 Noroeste 0 908.9 -1.5 98
2018-09-16 04:00:00 13.4 0 Calma 15 Norte 0 909.2 -1 97
2018-09-16 03:00:00 13.8 0 Calma 14 Nordeste 0 909.7 -0.7 98
2018-09-16 02:00:00 13.8 0 Calma 6 Noroeste 0 910.4 0.1 97
2018-09-16 01:00:00 14.8 0 Calma 15 Este 0 910.2 0.1 96
2018-09-16 00:00:00 15.6 0 Calma 6 Noroeste 0 910.4 1 93
2018-09-15 23:00:00 16.3 2 Noroeste 6 Norte 0 910.3 1.3 92
2018-09-15 22:00:00 16.5 2 Norte 16 Norte 0 910.1 1.5 91
2018-09-15 21:00:00 17.1 2 Norte 14 Sudeste 0 909.4 1 87
2018-09-15 20:00:00 18.9 2 Norte 19 Este 0 909 0.7 79
2018-09-15 19:00:00 20.6 5 Sudeste 26 Este 0 908.6 0.5 69
2018-09-15 18:00:00 21.9 4 Sudeste 28 Este 0 908.4 -0.1 63
2018-09-15 17:00:00 22.2 9 Este 31 Este 0 908.3 -0.8 60
2018-09-15 16:00:00 23.2 6 Sudeste 25 Sudeste 0 908.1 -1.3 54
2018-09-15 15:00:00 25.1 7 Sudeste 25 Sudeste 0 908.5 -1.3 51
2018-09-15 14:00:00 23.2 9 Sudeste 23 Este 0 909.1 -1 55
2018-09-15 13:00:00 21.9 5 Sudeste 24 Sudeste 0 909.4 -0.9 61
2018-09-15 12:00:00 19.8 7 Sudeste 16 Sur 0 909.8 -0.3 72
2018-09-15 11:00:00 17.8 0 Calma 6 Noroeste 0 910.1 0.2 80
2018-09-15 10:00:00 15.5 0 Calma 5 Noroeste 0 910.3 1 97
2018-09-15 09:00:00 13.4 0 Calma 3 Norte 0 910.1 1 98
2018-09-15 08:00:00 11.8 0 Calma 5 Noroeste 0 909.9 0.5 98
2018-09-15 07:00:00 11.7 0 Calma 5 Noroeste 0 909.3 0.2 98
2018-09-15 06:00:00 12.2 0 Calma 5 Noroeste 0 909.1 0.2 98
2018-09-15 05:00:00 12.6 0 Calma 15 Este 0 909.4 0.1 98
2018-09-15 04:00:00 13 3 Norte 14 Nordeste 0 909.1 0.2 98
2018-09-15 03:00:00 12.6 0 Calma 4 Noroeste 0 908.9 0.1 98
2018-09-15 02:00:00 12.9 0 Calma 6 Noroeste 0 909.3 0.7 98
2018-09-15 01:00:00 13.4 0 Calma 4 Norte 0 908.9 0.5 98
2018-09-15 00:00:00 14 0 Calma 15 Nordeste 0 908.8 0.9 97
2018-09-14 23:00:00 14.6 0 Calma 6 Noroeste 0 908.6 1.4 96
2018-09-14 22:00:00 15.5 0 Calma 8 Noroeste 0 908.4 1.7 93
2018-09-14 21:00:00 16.8 0 Calma 9 Oeste 0 907.9 1.5 89
2018-09-14 20:00:00 18.1 2 Noroeste 20 Sudeste 0 907.2 0.7 85
2018-09-14 19:00:00 20.3 5 Este 18 Este 0 906.7 0.3 74
2018-09-14 18:00:00 22.5 4 Sudeste 32 Este 0 906.4 -0.1 64
2018-09-14 17:00:00 23.4 5 Sudeste 20 Sur 0 906.5 -0.3 61
2018-09-14 16:00:00 25 6 Sudeste 28 Sudeste 0 906.4 -0.8 54
2018-09-14 15:00:00 26.4 8 Sudeste 30 Sur 0 906.5 -1.1 48
2018-09-14 14:00:00 25.8 10 Sudeste 45 Este 0 906.8 -1 48
2018-09-14 13:00:00 24.4 8 Sudeste 29 Este 0 907.2 -0.7 50
2018-09-14 12:00:00 22.8 5 Sudeste 19 Sur 0 907.6 -0.1 59
2018-09-14 11:00:00 17.5 3 Sudeste 13 Oeste 0 907.8 0.2 81
2018-09-14 10:00:00 15.1 4 Noroeste 16 Nordeste 0 907.9 0.5 89
2018-09-14 09:00:00 11.2 0 Calma 12 Noroeste 0 907.7 0.5 98
2018-09-14 08:00:00 10.8 4 Noroeste 10 Noroeste 0 907.6 0.3 98
2018-09-14 07:00:00 10.9 0 Calma 7 Noroeste 0 907.4 -0.2 98
2018-09-14 06:00:00 11.1 0 Calma 4 Noroeste 0 907.2 -0.6 98
2018-09-14 05:00:00 11.7 0 Calma 11 Norte 0 907.3 -0.7 98
2018-09-14 04:00:00 11.9 2 Noroeste 16 Nordeste 0 907.6 -0.5 98
2018-09-14 03:00:00 12.2 2 Oeste 13 Nordeste 0 907.8 -0.3 98
2018-09-14 02:00:00 12.6 0 Calma 5 Oeste 0 908 -0.1 98
2018-09-14 01:00:00 13 0 Calma 17 Norte 0 908.1 0 98
2018-09-14 00:00:00 13.6 3 Noroeste 14 Nordeste 0 908.1 0.5 98
2018-09-13 23:00:00 14.1 2 Noroeste 10 Oeste 0 908.1 1.3 96
2018-09-13 22:00:00 15 2 Noroeste 9 Noroeste 0 908.1 1.6 94
2018-09-13 21:00:00 15.9 2 Noroeste 12 Norte 0 907.6 1.4 91
2018-09-13 20:00:00 17.4 3 Noroeste 8 Noroeste 0 906.8 0.5 86
2018-09-13 19:00:00 18.7 3 Noroeste 7 Noroeste 0 906.5 -0.1 83
2018-09-13 18:00:00 21.7 2 Sudeste 19 Sudeste 0 906.2 -0.6 69
2018-09-13 17:00:00 26.1 4 Sudeste 24 Este 0 906.3 -1.1 46
2018-09-13 16:00:00 26.6 6 Sudeste 23 Sudeste 0 906.6 -1.2 42
2018-09-13 15:00:00 26.2 10 Sudeste 27 Sur 0 906.8 -1.5 42
2018-09-13 14:00:00 25.8 6 Sudeste 28 Este 0 907.4 -1.1 42
2018-09-13 13:00:00 24 7 Sudeste 26 Este 0 907.8 -0.8 45
2018-09-13 12:00:00 21.7 5 Sudeste 13 Este 0 908.3 -0.5 59
2018-09-13 11:00:00 16.8 3 Sudeste 14 Sudeste 0 908.5 -0.3 83
2018-09-13 10:00:00 14.7 4 Noroeste 7 Noroeste 0 908.6 0 89
2018-09-13 09:00:00 10.7 0 Calma 9 Noroeste 0 908.8 0.3 98
2018-09-13 08:00:00 10.4 0 Calma 9 Noroeste 0 908.8 0.2 98
2018-09-13 07:00:00 10.8 3 Noroeste 12 Norte 0 908.6 -0.3 98
2018-09-13 06:00:00 11 0 Calma 14 Norte 0 908.5 -0.4 97
2018-09-13 05:00:00 12.1 4 Noroeste 23 Noroeste 0 908.6 -0.6 94
2018-09-13 04:00:00 11.5 3 Nordeste 17 Norte 0 908.9 -0.6 98
2018-09-13 03:00:00 12 2 Sudeste 16 Noroeste 0 908.9 -1 97
2018-09-13 02:00:00 12.3 3 Nordeste 15 Noroeste 0 909.2 -0.7 97
2018-09-13 01:00:00 12.9 3 Noroeste 25 Noroeste 0 909.5 -0.5 96
2018-09-13 00:00:00 13.9 3 Oeste 24 Norte 0 909.9 0.4 93
2018-09-12 23:00:00 14.2 4 Noroeste 27 Noroeste 0 909.9 0.6 92
2018-09-12 22:00:00 14.2 6 Norte 26 Norte 0 910 0.8 93
2018-09-12 21:00:00 14.9 8 Norte 26 Norte 0 909.5 0.1 93
2018-09-12 20:00:00 15.3 7 Noroeste 17 Noroeste 0 909.3 -0.9 95
2018-09-12 19:00:00 16.5 6 Norte 17 Norte 0 909.2 -1 93
2018-09-12 18:00:00 17 6 Norte 14 Norte 0.2 909.4 -1.7 94
2018-09-12 17:00:00 17.5 0 Calma 6 Noroeste 0.8 910.2 -1 93
2018-09-12 16:00:00 17.4 3 Noroeste 12 Noroeste 1.4 910.2 -0.7 93
2018-09-12 15:00:00 17.3 2 Este 21 Sur 1.2 911.1 -0.3 90
2018-09-12 14:00:00 18.3 9 Sudeste 25 Este 0 911.2 -0.3 80
2018-09-12 13:00:00 21.1 6 Sudeste 23 Sudeste 0 910.9 -0.6 64
2018-09-12 12:00:00 20 8 Sur 24 Sur 0 911.4 -0.1 69
2018-09-12 11:00:00 17.6 5 Noroeste 8 Noroeste 0 911.5 -0.4 83
2018-09-12 10:00:00 15.5 3 Noroeste 9 Noroeste 0 911.5 -0.2 95
2018-09-12 09:00:00 13.8 0 Calma 3 Este 0 911.5 -0.3 98
2018-09-12 08:00:00 13 2 Norte 5 Noroeste 0 911.9 0 98
2018-09-12 07:00:00 12.2 0 Calma 9 Noroeste 0 911.7 -0.4 98
2018-09-12 06:00:00 12.2 0 Calma 5 Noroeste 0 911.8 -0.7 98
2018-09-12 05:00:00 12.9 0 Calma 8 Noroeste 0 911.9 -1.1 98
2018-09-12 04:00:00 13.3 0 Calma 6 Noroeste 0 912.1 -0.5 98
2018-09-12 03:00:00 12.8 2 Noroeste 6 Noroeste 0 912.5 -0.5 98
2018-09-12 02:00:00 12.8 0 Calma 13 Sudoeste 0 913 0.2 98
2018-09-12 01:00:00 13.4 0 Calma 5 Norte 0 912.6 0 97
2018-09-12 00:00:00 14.3 2 Este 8 Norte 0 913 0.7 96
2018-09-11 23:00:00 14.9 2 Norte 16 Este 0 912.8 1.1 93
2018-09-11 22:00:00 15.6 3 Norte 5 Noroeste 0 912.6 1.4 93
2018-09-11 21:00:00 15.8 2 Noroeste 6 Noroeste 0 912.3 1.1 91
2018-09-11 20:00:00 17.1 0 Calma 15 Nordeste 0 911.7 0.3 85
2018-09-11 19:00:00 19.5 2 Norte 15 Nordeste 0 911.2 -0.5 77
2018-09-11 18:00:00 22.7 3 Sudeste 18 Sur 0 911.2 -1.3 56
2018-09-11 17:00:00 24.7 5 Sudeste 21 Sur 0 911.4 -1.4 47
2018-09-11 16:00:00 23.7 6 Sudeste 24 Sur 0 911.7 -1.1 52
2018-09-11 15:00:00 24.9 10 Sudeste 27 Este 0 912.5 -0.6 47
2018-09-11 14:00:00 23.2 5 Sudeste 31 Este 0 912.8 -0.8 52
2018-09-11 13:00:00 23.2 6 Sudeste 28 Este 0 912.8 -1 50
2018-09-11 12:00:00 23 6 Sudeste 18 Este 0 913.1 -0.8 51
2018-09-11 11:00:00 18.7 3 Sudeste 15 Sur 0 913.6 -0.2 69
2018-09-11 10:00:00 15.9 3 Noroeste 15 Norte 0 913.8 0.4 83
2018-09-11 09:00:00 12 3 Noroeste 14 Nordeste 0 913.9 0.7 98
2018-09-11 08:00:00 10.3 2 Oeste 14 Nordeste 0 913.8 0.5 98
2018-09-11 07:00:00 10.4 3 Noroeste 8 Noroeste 0 913.4 0.2 98
2018-09-11 06:00:00 10.9 3 Noroeste 10 Norte 0 913.2 -0.2 98
2018-09-11 05:00:00 11.3 4 Noroeste 15 Oeste 0 913.3 -0.2 97
2018-09-11 04:00:00 11.6 3 Oeste 15 Norte 0 913.2 -0.5 97
2018-09-11 03:00:00 11.9 0 Calma 15 Noroeste 0 913.4 -0.3 96
2018-09-11 02:00:00 12.3 3 Noroeste 10 Noroeste 0 913.5 -0.4 96
2018-09-11 01:00:00 13 4 Noroeste 13 Nordeste 0 913.7 0.3 94
2018-09-11 00:00:00 13.4 3 Noroeste 14 Norte 0 913.7 1 94
2018-09-10 23:00:00 14.4 0 Calma 14 Sudoeste 0 913.9 2.5 91
2018-09-10 22:00:00 15.2 4 Noroeste 18 Norte 0 913.4 2.6 91
2018-09-10 21:00:00 15.7 3 Noroeste 6 Norte 0 912.7 2.2 92
2018-09-10 20:00:00 17.6 0 Calma 13 Nordeste 0 911.4 1 81
2018-09-10 19:00:00 19.9 2 Noroeste 13 Norte 0 910.8 0 73
2018-09-10 18:00:00 22.8 2 Sur 16 Sur 0 910.5 -0.7 65
2018-09-10 17:00:00 25.6 5 Sudeste 18 Sudeste 0 910.4 -1.1 47
2018-09-10 16:00:00 25.2 7 Sudeste 21 Sudeste 0 910.8 -0.8 46
2018-09-10 15:00:00 24.9 6 Sudeste 24 Sur 0 911.2 -0.5 47
2018-09-10 14:00:00 22 7 Este 28 Sur 0 911.5 -0.5 56
2018-09-10 13:00:00 23.7 8 Sudeste 31 Este 0 911.6 -0.2 51
2018-09-10 12:00:00 21.5 8 Sudeste 19 Sur 0 911.7 0 55
2018-09-10 11:00:00 16.6 4 Sudeste 17 Este 0 912 0.2 69
2018-09-10 10:00:00 13.6 3 Sudeste 6 Noroeste 0 911.8 0.7 95
2018-09-10 09:00:00 10.1 2 Este 13 Nordeste 0 911.7 1.5 98
2018-09-10 08:00:00 9.5 4 Noroeste 13 Norte 0 911.8 1.5 98
2018-09-10 07:00:00 9.5 0 Calma 5 Noroeste 0 911.1 0.4 98
2018-09-10 06:00:00 9.9 0 Calma 10 Oeste 0 910.2 -0.7 97
2018-09-10 05:00:00 10.5 3 Noroeste 16 Norte 0 910.3 -1.1 97
2018-09-10 04:00:00 10.7 3 Noroeste 16 Noroeste 0 910.7 -0.6 96
2018-09-10 03:00:00 10.9 3 Noroeste 9 Noroeste 0 910.9 -0.1 97
2018-09-10 02:00:00 11.3 2 Noroeste 14 Nordeste 0 911.4 0.6 97
2018-09-10 01:00:00 12 3 Noroeste 8 Norte 0 911.3 0.9 96
2018-09-10 00:00:00 13 2 Noroeste 14 Noroeste 0 911 1.2 94
2018-09-09 23:00:00 13.7 5 Norte 13 Noroeste 0 910.8 1.5 91
2018-09-09 22:00:00 14.6 0 Calma 19 Norte 0 910.4 1.4 89
2018-09-09 21:00:00 15.9 5 Norte 22 Norte 0 909.8 1.8 82
2018-09-09 20:00:00 17 6 Norte 24 Noroeste 0 909.3 1.8 75
2018-09-09 19:00:00 19 9 Noroeste 26 Noroeste 0 909 1.4 62
2018-09-09 18:00:00 20 4 Noroeste 16 Nordeste 0 908 0 79
2018-09-09 17:00:00 25 2 Sudoeste 17 Noroeste 0 907.5 -0.9 55
2018-09-09 16:00:00 23.9 6 Sudeste 21 Sur 0 907.6 -1.4 57
2018-09-09 15:00:00 23.2 5 Sur 17 Sur 0 908 -1.6 56
2018-09-09 14:00:00 23.1 3 Sur 8 Sur 0 908.4 -1.4 60
2018-09-09 13:00:00 20.4 2 Sur 15 Nordeste 0 909 -0.8 69
2018-09-09 12:00:00 17.4 0 Calma 9 Norte 0 909.6 -0.4 81
2018-09-09 11:00:00 15.3 0 Calma 19 Nordeste 0.2 909.8 0.7 96
2018-09-09 10:00:00 14.3 5 Norte 19 Norte 0 909.8 1.2 97
2018-09-09 09:00:00 13.6 3 Noroeste 15 Noroeste 9 910 1.5 98
2018-09-09 08:00:00 13.4 0 Calma 15 Norte 0.2 909.1 0.9 97
2018-09-09 07:00:00 12.9 2 Noroeste 10 Noroeste 0 908.6 0.2 97
2018-09-09 06:00:00 12.8 3 Noroeste 17 Norte 0 908.5 -0.1 97
2018-09-09 05:00:00 12.5 3 Noroeste 6 Norte 0 908.2 -0.7 97
2018-09-09 04:00:00 12 0 Calma 16 Nordeste 0 908.4 -0.6 96
2018-09-09 03:00:00 12.3 0 Calma 15 Norte 0 908.6 -0.6 95
2018-09-09 02:00:00 12.1 3 Noroeste 12 Noroeste 0 908.9 -0.1 95
2018-09-09 01:00:00 12.6 3 Norte 12 Norte 0 909 0.5 93
2018-09-09 00:00:00 13.4 0 Calma 16 Norte 0 909.2 1.5 91
2018-09-08 23:00:00 13.6 4 Noroeste 12 Noroeste 0 909 1.5 94
2018-09-08 22:00:00 14.3 0 Calma 18 Norte 0 908.5 1.6 88
2018-09-08 21:00:00 15.1 3 Noroeste 9 Norte 0 907.7 0.9 88
2018-09-08 20:00:00 16.6 3 Noroeste 9 Noroeste 0 907.5 0.7 84
2018-09-08 19:00:00 19.1 0 Calma 8 Este 0 906.9 -0.1 76
2018-09-08 18:00:00 22.4 4 Sudeste 19 Sur 0 906.8 -0.8 59
2018-09-08 17:00:00 24.5 4 Sudeste 21 Sur 0 906.8 -0.8 47
2018-09-08 16:00:00 23 8 Sur 27 Sur 0 907 -0.6 51
2018-09-08 15:00:00 23.2 9 Sudeste 22 Sudeste 0 907.6 -0.3 52
2018-09-08 14:00:00 23.2 9 Sudeste 26 Sur 0 907.6 -0.2 50
2018-09-08 13:00:00 22.6 4 Sudeste 22 Sudeste 0 907.6 -0.3 51
2018-09-08 12:00:00 20.3 5 Sudeste 21 Sur 0 907.9 0.4 63
2018-09-08 11:00:00 17.3 5 Noroeste 10 Noroeste 0 907.8 0.3 72
2018-09-08 10:00:00 14.2 4 Este 10 Este 0 907.9 0.6 89
2018-09-08 09:00:00 11.4 0 Calma 14 Sudoeste 0 907.5 0.1 98
2018-09-08 08:00:00 11 0 Calma 10 Noroeste 0 907.5 -0.1 98
2018-09-08 07:00:00 11.4 4 Noroeste 17 Norte 0 907.3 -0.6 98
2018-09-08 06:00:00 11.2 0 Calma 15 Noroeste 0 907.4 -0.2 98
2018-09-08 05:00:00 11.2 3 Noroeste 11 Norte 0 907.6 0.1 98
2018-09-08 04:00:00 11.5 0 Calma 5 Norte 0 907.9 0.6 98
2018-09-08 03:00:00 12 0 Calma 5 Norte 0 907.6 0.5 98
2018-09-08 02:00:00 12.7 0 Calma 6 Noroeste 0 907.5 0.6 97
2018-09-08 01:00:00 13.4 0 Calma 5 Noroeste 0 907.3 0.7 96
2018-09-08 00:00:00 14.7 0 Calma 5 Norte 0 907.1 1.3 96
2018-09-07 23:00:00 15 0 Calma 5 Nordeste 0 906.9 2 95
2018-09-07 22:00:00 15.1 0 Calma 5 Norte 0 906.6 2.1 94
2018-09-07 21:00:00 15.2 3 Norte 5 Noroeste 0 905.8 1.5 92
2018-09-07 20:00:00 16.8 0 Calma 5 Noroeste 0 904.9 1 85
2018-09-07 19:00:00 19.4 2 Sur 16 Sudeste 0 904.5 0.6 77
2018-09-07 18:00:00 20 2 Noroeste 20 Sudeste 0 904.3 0.2 72
2018-09-07 17:00:00 24.3 4 Sudeste 19 Sudeste 0 903.9 -0.5 48
2018-09-07 16:00:00 24.4 6 Sudeste 22 Sur 0 903.9 -0.9 43
2018-09-07 15:00:00 24.5 6 Sudeste 25 Sudeste 0 904.1 -1 43
2018-09-07 14:00:00 23.6 8 Sudeste 25 Sur 0 904.4 -0.9 47
2018-09-07 13:00:00 22.1 8 Sudeste 25 Este 0 904.8 -0.6 51
2018-09-07 12:00:00 20 9 Sur 18 Sudoeste 0 905.1 -0.5 55
2018-09-07 11:00:00 15 3 Sudeste 7 Sudeste 0 905.3 -0.2 84
2018-09-07 10:00:00 12.3 2 Oeste 6 Oeste 0 905.4 0.3 94
2018-09-07 09:00:00 8.5 0 Calma 6 Noroeste 0 905.6 0.7 98
2018-09-07 08:00:00 8.3 3 Noroeste 8 Norte 0 905.5 0.7 98
2018-09-07 07:00:00 8.7 2 Oeste 15 Norte 0 905.1 0.1 96
2018-09-07 06:00:00 8.7 3 Noroeste 12 Noroeste 0 904.9 0 98
2018-09-07 05:00:00 9.4 4 Norte 17 Norte 0.2 904.8 0 97
2018-09-07 04:00:00 9.7 4 Norte 16 Norte 0 905 0.1 97
2018-09-07 03:00:00 9.7 3 Noroeste 16 Noroeste 0 904.9 0.1 98
2018-09-07 02:00:00 10.4 4 Noroeste 18 Noroeste 0 904.8 0 98
2018-09-07 01:00:00 10.6 3 Noroeste 16 Norte 0 904.9 0.3 98
2018-09-07 00:00:00 11 3 Noroeste 15 Noroeste 0 904.8 0.9 98
2018-09-06 23:00:00 11.7 2 Norte 14 Noroeste 0 904.8 1.2 98
2018-09-06 22:00:00 11.8 0 Calma 19 Norte 0 904.6 1.4 98
2018-09-06 21:00:00 12.2 3 Noroeste 13 Noroeste 0 903.9 0.5 98
2018-09-06 20:00:00 12.8 0 Calma 10 Norte 0 903.6 -0.8 98
2018-09-06 19:00:00 13.5 4 Noroeste 15 Norte 0 903.2 0.8 98
2018-09-06 18:00:00 13.8 7 Noroeste 17 Norte 2 903.4 1 98
2018-09-06 17:00:00 11.3 8 Norte 45 Norte 14 904.4 2.1 98
2018-09-06 16:00:00 17.2 0 Calma 15 Este 2.4 902.4 -0.3 90
2018-09-06 15:00:00 19 0 Calma 11 Noroeste 0.8 902.4 -0.3 83
2018-09-06 14:00:00 19.7 3 Norte 9 Noroeste 0 902.3 -1 70
2018-09-06 13:00:00 18.9 2 Noroeste 17 Este 0.2 902.7 -0.9 81
2018-09-06 12:00:00 20 5 Sudeste 14 Este 0 902.7 -1.1 58
2018-09-06 11:00:00 15.7 2 Sudeste 5 Este 0 903.3 -0.4 81
2018-09-06 10:00:00 14 2 Sudeste 11 Norte 0 903.6 0.2 92
2018-09-06 09:00:00 11.4 0 Calma 10 Norte 0 903.8 0.5 98
2018-09-06 08:00:00 10 0 Calma 19 Norte 0 903.7 0.5 98
2018-09-06 07:00:00 9.5 0 Calma 15 Este 0 903.4 0.1 98
2018-09-06 06:00:00 9.6 2 Noroeste 15 Nordeste 0 903.3 -0.3 98
2018-09-06 05:00:00 10.1 0 Calma 13 Norte 0 903.2 -0.8 97
2018-09-06 04:00:00 10.2 2 Noroeste 14 Norte 0 903.3 -1.3 97
2018-09-06 03:00:00 10.8 0 Calma 12 Norte 0 903.6 -1.2 97
2018-09-06 02:00:00 11.7 3 Norte 14 Nordeste 0 904 -2.2 97
2018-09-06 01:00:00 12.4 2 Noroeste 15 Noroeste 0 904.6 -0.2 97
2018-09-06 00:00:00 13.2 2 Este 26 Norte 0.8 904.8 1.9 96
2018-09-05 23:00:00 13.5 2 Noroeste 24 Noroeste 4.2 906.2 4.6 97
2018-09-05 22:00:00 14 6 Norte 17 Noroeste 8.4 904.8 3.5 95
2018-09-05 21:00:00 17 10 Este 41 Este 0 902.9 1.1 71
2018-09-05 20:00:00 18.7 8 Este 27 Sur 0 901.6 -0.3 70
2018-09-05 19:00:00 19.2 6 Noroeste 13 Noroeste 0 901.3 -1.3 76
2018-09-05 18:00:00 20.1 2 Noroeste 8 Noroeste 0 901.8 -1.1 81
2018-09-05 17:00:00 22.2 0 Calma 8 Noroeste 0 901.9 -1.6 73
2018-09-05 16:00:00 23.1 2 Sudoeste 18 Sur 0 902.6 -1.4 63
2018-09-05 15:00:00 25.2 5 Sudeste 17 Sur 0 902.9 -1.5 51
2018-09-05 14:00:00 22.9 5 Sudeste 28 Sudeste 0 903.5 -1.5 57
2018-09-05 13:00:00 23.8 8 Sudeste 21 Sur 0 904 -1.4 51
2018-09-05 12:00:00 21 3 Norte 17 Noroeste 0 904.4 -1.2 57
2018-09-05 11:00:00 17.3 6 Norte 11 Norte 0 905 -0.3 80
2018-09-05 10:00:00 15 3 Norte 15 Norte 0 905.4 0.4 91
2018-09-05 09:00:00 13.4 4 Norte 19 Norte 0 905.6 1 97
2018-09-05 08:00:00 12.2 6 Norte 18 Noroeste 0 905.3 0.3 97
2018-09-05 07:00:00 12.1 2 Noroeste 18 Nordeste 0 905 -0.9 97
2018-09-05 06:00:00 12.8 4 Noroeste 24 Noroeste 0 904.6 -1.7 97
2018-09-05 05:00:00 13.4 10 Norte 25 Noroeste 0.8 905 -0.6 96
2018-09-05 04:00:00 13.6 5 Noroeste 13 Norte 4.8 905.9 1.3 98
2018-09-05 03:00:00 13.7 0 Calma 9 Noroeste 3.2 906.3 1.7 97
2018-09-05 02:00:00 13.9 3 Noroeste 24 Norte 1.2 905.6 1 94
2018-09-05 01:00:00 14.3 8 Norte 21 Norte 0 904.6 -0.1 87
2018-09-05 00:00:00 14.5 7 Norte 24 Nordeste 0 904.6 0.9 85
2018-09-04 23:00:00 15.2 7 Norte 20 Noroeste 0 904.6 1.4 81
2018-09-04 22:00:00 16.4 12 Norte 32 Norte 0 904.7 2 72
2018-09-04 21:00:00 15.2 2 Noroeste 16 Norte 0 903.7 1 87
2018-09-04 20:00:00 17 2 Noroeste 19 Nordeste 0 903.2 1.5 80
2018-09-04 19:00:00 18.8 8 Noroeste 24 Norte 0 902.7 1.1 66
2018-09-04 18:00:00 20.4 9 Noroeste 30 Noroeste 0 902.7 0.9 61
2018-09-04 17:00:00 21.8 4 Noroeste 13 Sur 0 901.7 -0.4 68
2018-09-04 16:00:00 27.6 5 Sudeste 18 Sudeste 0 901.6 -0.9 35
2018-09-04 15:00:00 27.6 5 Sudeste 23 Sudeste 0 901.8 -1 40
2018-09-04 14:00:00 26.6 8 Sudeste 24 Sur 0 902.1 -1.1 39
2018-09-04 13:00:00 25.1 6 Sudeste 21 Sur 0 902.5 -1.1 48
2018-09-04 12:00:00 22.1 2 Sudeste 7 Noroeste 0 902.8 -1.1 55
2018-09-04 11:00:00 17.1 0 Calma 8 Oeste 0 903.2 -0.8 81
2018-09-04 10:00:00 15 0 Calma 4 Nordeste 0 903.6 0 94
2018-09-04 09:00:00 12.2 0 Calma 13 Nordeste 0 903.9 0.6 98
2018-09-04 08:00:00 11.3 5 Noroeste 16 Norte 0 904 0.4 98
2018-09-04 07:00:00 11.1 3 Noroeste 8 Noroeste 0 903.6 -0.1 98
2018-09-04 06:00:00 11.6 0 Calma 9 Norte 0 903.3 -1 98
2018-09-04 05:00:00 12 2 Noroeste 17 Norte 0.2 903.6 -1 97
2018-09-04 04:00:00 12.5 8 Norte 20 Noroeste 0 903.7 -1.4 98
2018-09-04 03:00:00 12.9 4 Sudoeste 27 Norte 0 904.3 -0.7 97
2018-09-04 02:00:00 13.1 0 Calma 14 Norte 0.2 904.6 0 97
2018-09-04 01:00:00 13.3 6 Norte 26 Noroeste 2.4 905.1 0.4 96
2018-09-04 00:00:00 13 11 Norte 26 Norte 0.8 905 2 97
2018-09-03 23:00:00 13.4 3 Sudoeste 40 Noroeste 2.4 904.6 2.2 91
2018-09-03 22:00:00 16.4 12 Noroeste 31 Noroeste 5 904.7 3.1 89
2018-09-03 21:00:00 16.9 2 Sudoeste 19 Noroeste 0 903 1.6 94
2018-09-03 20:00:00 17.5 3 Noroeste 30 Noroeste 0 902.4 0.6 92
2018-09-03 19:00:00 18.6 9 Norte 26 Norte 0 901.6 -0.7 88
2018-09-03 18:00:00 20 2 Noroeste 13 Este 0 901.4 -0.3 84
2018-09-03 17:00:00 22.2 3 Oeste 17 Noroeste 2 901.8 -0.4 81
2018-09-03 16:00:00 21.3 4 Noroeste 24 Sudeste 2.6 902.3 -0.3 83
2018-09-03 15:00:00 27.6 9 Sudeste 31 Sudeste 0 901.7 -1.3 40
2018-09-03 14:00:00 28.1 8 Sudeste 27 Sudoeste 0 902.2 -1.2 42
2018-09-03 13:00:00 26.5 8 Sudeste 38 Este 0 902.6 -1.5 44
2018-09-03 12:00:00 23.7 12 Este 33 Este 0 903 -1.4 48
2018-09-03 11:00:00 18.9 4 Este 9 Este 0 903.4 -1.1 70
2018-09-03 10:00:00 16.9 4 Noroeste 10 Noroeste 0 904.1 0.1 78
2018-09-03 09:00:00 12.6 2 Este 10 Oeste 0 904.4 0.4 98
2018-09-03 08:00:00 11.2 0 Calma 6 Oeste 0 904.5 0.2 98
2018-09-03 07:00:00 11.2 0 Calma 9 Norte 0 904 -0.5 98
2018-09-03 06:00:00 11.3 0 Calma 8 Noroeste 0 904 -0.5 97
2018-09-03 05:00:00 11.6 0 Calma 5 Noroeste 0 904.3 -0.5 97
2018-09-03 04:00:00 11.9 0 Calma 5 Noroeste 0 904.5 -0.4 97
2018-09-03 03:00:00 12.4 0 Calma 15 Este 0 904.5 -0.3 96
2018-09-03 02:00:00 12.8 3 Noroeste 5 Noroeste 0 904.8 0.1 96
2018-09-03 01:00:00 13.3 0 Calma 6 Oeste 0 904.9 0.5 93
2018-09-03 00:00:00 14.2 2 Noroeste 11 Noroeste 0 904.8 0.9 91
2018-09-02 23:00:00 14.9 2 Noroeste 6 Noroeste 0 904.7 1.4 88
2018-09-02 22:00:00 16.6 3 Noroeste 13 Norte 0 904.4 1.4 80
2018-09-02 21:00:00 17.7 3 Noroeste 16 Norte 0 903.9 0.9 82
2018-09-02 20:00:00 19.4 4 Noroeste 9 Noroeste 0 903.3 0.3 77
2018-09-02 19:00:00 21.8 3 Noroeste 11 Este 0 903 -0.2 68
2018-09-02 18:00:00 25.8 5 Sudeste 24 Sur 0 903 -0.7 48
2018-09-02 17:00:00 27.7 6 Sudeste 26 Sudeste 0 903 -1.3 42
2018-09-02 16:00:00 27.7 8 Sudeste 27 Sudeste 0 903.2 -1.7 43
2018-09-02 15:00:00 27.5 7 Sudeste 28 Sudeste 0 903.7 -1.9 42
2018-09-02 14:00:00 26.8 6 Sudeste 27 Sur 0 904.3 -1.8 44
2018-09-02 13:00:00 25.1 9 Sudeste 30 Este 0 904.9 -1.5 48
2018-09-02 12:00:00 23.7 8 Sudeste 23 Este 0 905.6 -1 52
2018-09-02 11:00:00 18.7 4 Sudeste 12 Este 0 906.1 -0.8 72
2018-09-02 10:00:00 15.8 2 Sudeste 6 Noroeste 0 906.4 -0.4 81
2018-09-02 09:00:00 11.9 0 Calma 15 Nordeste 0 906.6 -0.3 97
2018-09-02 08:00:00 10.5 0 Calma 13 Sudoeste 0 906.9 -0.2 96
2018-09-02 07:00:00 11.1 3 Norte 9 Noroeste 0 906.8 -0.6 96
2018-09-02 06:00:00 11.2 2 Norte 8 Noroeste 0 906.9 -0.7 95
2018-09-02 05:00:00 11 0 Calma 15 Nordeste 0 907.1 -0.8 95
2018-09-02 04:00:00 11.1 2 Norte 8 Noroeste 0 907.4 -0.5 93
2018-09-02 03:00:00 10.8 0 Calma 6 Noroeste 0 907.6 -0.2 93
2018-09-02 02:00:00 11.3 0 Calma 13 Noroeste 0 907.9 0.4 89
2018-09-02 01:00:00 11.5 0 Calma 9 Noroeste 0 907.9 0.5 89
2018-09-02 00:00:00 12.1 0 Calma 7 Noroeste 0 907.8 1 87
2018-09-01 23:00:00 13.2 0 Calma 8 Oeste 0 907.5 1.2 81
2018-09-01 22:00:00 14.4 3 Noroeste 9 Noroeste 0 907.4 1.4 75
2018-09-01 21:00:00 16.3 3 Noroeste 11 Noroeste 0 906.8 1.3 72
2018-09-01 20:00:00 19.5 0 Calma 24 Noroeste 0 906.3 0.8 63
2018-09-01 19:00:00 22.8 6 Noroeste 27 Noroeste 0 906 0.3 41
2018-09-01 18:00:00 25.9 5 Noroeste 21 Noroeste 0 905.5 -0.7 34
2018-09-01 17:00:00 27.3 9 Noroeste 24 Noroeste 0 905.5 -0.9 24
2018-09-01 16:00:00 27.7 7 Sudeste 28 Sur 0 905.7 -1 41
2018-09-01 15:00:00 27.7 6 Sudeste 26 Sur 0 906.2 -1.1 39
2018-09-01 14:00:00 26.5 9 Sudeste 36 Sudeste 0 906.4 -1.4 42
2018-09-01 13:00:00 25.1 7 Sudeste 25 Sur 0 906.7 -1.3 48
2018-09-01 12:00:00 23 6 Sudeste 21 Sur 0 907.3 -1 52
2018-09-01 11:00:00 17.3 3 Sudeste 7 Sudeste 0 907.8 -0.5 67
2018-09-01 10:00:00 14.6 3 Nordeste 8 Noroeste 0 908 -0.1 78
2018-09-01 09:00:00 10.9 0 Calma 11 Oeste 0 908.3 0.2 98
2018-09-01 08:00:00 9.3 0 Calma 8 Noroeste 0 908.3 0 97
2018-09-01 07:00:00 9.4 0 Calma 6 Oeste 0 908.1 -0.3 97
2018-09-01 06:00:00 9.8 0 Calma 6 Noroeste 0 908.1 -0.2 97
2018-09-01 05:00:00 10.1 0 Calma 4 Norte 0 908.3 -0.1 97
2018-09-01 04:00:00 10.6 0 Calma 8 Noroeste 0 908.4 0.1 96
2018-09-01 03:00:00 11.2 0 Calma 8 Noroeste 0 908.3 0.1 95
2018-09-01 02:00:00 11.9 2 Oeste 8 Noroeste 0 908.4 0.4 93
2018-09-01 01:00:00 12.7 2 Noroeste 6 Noroeste 0 908.3 0.3 91
2018-09-01 00:00:00 14.2 0 Calma 13 Norte 0 908.2 1 86
2018-08-31 23:00:00 15.1 3 Noroeste 13 Nordeste -- 908 1.4 83
2018-08-31 22:00:00 17.5 5 Norte 18 Norte 0 908 1.7 73
2018-08-31 21:00:00 17.5 3 Noroeste 8 Norte 0 907.2 1.2 77
2018-08-31 20:00:00 19.3 3 Norte 19 Noroeste 0 906.6 1 67
2018-08-31 19:00:00 21.3 6 Noroeste 23 Noroeste 0 906.3 0.6 55
2018-08-31 18:00:00 23.4 2 Sudeste 21 Sudeste 0 906 0.1 54
2018-08-31 17:00:00 26.7 8 Sudeste 31 Sudeste 0 905.6 -0.5 44
2018-08-31 16:00:00 26.3 6 Sudeste 30 Sur 0 905.7 -0.8 47
2018-08-31 15:00:00 27.2 7 Sudeste 31 Sur 0 905.9 -0.8 33
2018-08-31 14:00:00 26.3 9 Sudeste 32 Este 0 906.1 -1 35
2018-08-31 13:00:00 24.6 8 Sudeste 32 Este 0 906.5 -0.6 34
2018-08-31 12:00:00 22.9 8 Sudeste 26 Sur 0 906.7 -0.5 48
2018-08-31 11:00:00 17.9 5 Este 12 Este 0 907.1 -0.2 62
2018-08-31 10:00:00 16.3 0 Calma 5 Norte 0 907.1 -0.2 75
2018-08-31 09:00:00 14 0 Calma 11 Norte 0 907.2 -0.1 96
2018-08-31 08:00:00 11.3 0 Calma 5 Noroeste 0 907.3 0 97
2018-08-31 07:00:00 10.7 0 Calma 5 Noroeste 0 907.3 -0.2 97
2018-08-31 06:00:00 11.3 0 Calma 15 Norte 0 907.3 -0.4 97
2018-08-31 05:00:00 11.5 0 Calma 7 Noroeste 0 907.3 -0.6 97
2018-08-31 04:00:00 11.9 0 Calma 8 Noroeste 0 907.5 -0.6 97
2018-08-31 03:00:00 12.6 2 Oeste 10 Norte 0 907.7 -0.4 96
2018-08-31 02:00:00 13.2 2 Noroeste 8 Norte 0 907.9 0 96
2018-08-31 01:00:00 13.8 0 Calma 14 Nordeste 0 908.1 0.4 95
2018-08-31 00:00:00 14.5 2 Norte 6 Noroeste 0 908.1 0.8 94
2018-08-30 23:00:00 15.3 2 Noroeste 15 Nordeste 0 907.9 1.2 92
2018-08-30 22:00:00 16.4 2 Norte 7 Noroeste 0 907.7 1.4 91
2018-08-30 21:00:00 17.9 3 Norte 15 Este 0 907.3 1 84
2018-08-30 20:00:00 20.9 2 Este 29 Este 0 906.7 0.3 72
2018-08-30 19:00:00 21.7 5 Sudeste 16 Este 0 906.3 -0.3 64
2018-08-30 18:00:00 21.9 2 Sudoeste 15 Sudeste 0 906.3 -0.6 72
2018-08-30 17:00:00 24.5 4 Sur 19 Este 0 906.4 -0.8 57
2018-08-30 16:00:00 25.9 6 Sudeste 26 Sur 0 906.6 -1.1 51
2018-08-30 15:00:00 26.4 5 Sudeste 28 Sur 0 906.9 -1.2 46
2018-08-30 14:00:00 25.4 7 Sudeste 28 Este -- 907.2 -1.4 53
2018-08-30 13:00:00 24.1 8 Sudeste 30 Este 0 907.7 -1.1 58
2018-08-30 12:00:00 22.2 6 Este 23 Este 0 908.1 -1 63
2018-08-30 11:00:00 17.5 2 Sudeste 8 Este 0 908.6 -0.4 86
2018-08-30 10:00:00 15 0 Calma 8 Norte 0 908.8 0.1 96
2018-08-30 09:00:00 12.5 2 Norte 5 Noroeste 0 909.1 0.5 97
2018-08-30 08:00:00 11.1 0 Calma 6 Noroeste 0 909 0.1 97
2018-08-30 07:00:00 10.8 2 Noroeste 7 Oeste 0 908.7 -0.7 97
2018-08-30 06:00:00 11.1 0 Calma 6 Noroeste 0 908.6 -0.9 97
2018-08-30 05:00:00 11.6 2 Oeste 9 Norte 0 908.9 -0.8 97
2018-08-30 04:00:00 12 2 Noroeste 8 Noroeste 0 909.4 -0.2 97
2018-08-30 03:00:00 12.2 2 Noroeste 14 Nordeste 0 909.5 -0.2 97
2018-08-30 02:00:00 12.6 0 Calma 16 Este 0 909.7 0.2 97
2018-08-30 01:00:00 13.1 0 Calma 16 Norte 0 909.6 0.2 97
2018-08-30 00:00:00 13.6 2 Noroeste 17 Noroeste 0.6 909.7 1 97
2018-08-29 23:00:00 14 2 Noroeste 22 Norte 1.4 909.5 1.2 97
2018-08-29 22:00:00 14.9 5 Norte 16 Norte 1.4 909.4 0.9 97
2018-08-29 21:00:00 14.6 4 Noroeste 11 Norte 2 908.7 0.2 97
2018-08-29 20:00:00 15.3 4 Noroeste 22 Norte 2.6 908.3 1.8 97
2018-08-29 19:00:00 14.6 6 Norte 18 Norte 4.2 908.5 2.8 97
2018-08-29 18:00:00 14.7 16 Noroeste 49 Norte 2.6 908.5 2.6 95
2018-08-29 17:00:00 19.8 10 Noroeste 27 Sur 0.4 906.5 0.7 80
2018-08-29 16:00:00 27.2 7 Sudeste 45 Este 0 905.7 -0.3 37
2018-08-29 15:00:00 27.1 8 Sudeste 31 Sur 0 905.9 -0.2 37
2018-08-29 14:00:00 27.8 8 Sudeste 32 Sudeste 0 905.8 -0.7 35
2018-08-29 13:00:00 26.9 9 Sudeste 36 Sur 0 906 -0.6 39
2018-08-29 12:00:00 25 8 Sudeste 32 Este 0 906.1 -0.5 41
2018-08-29 11:00:00 19.5 0 Calma 6 Este 0 906.5 -0.1 64
2018-08-29 10:00:00 16.8 0 Calma 10 Nordeste 0 906.6 0.3 77
2018-08-29 09:00:00 13.6 3 Noroeste 12 Noroeste 0 906.6 0.6 95
2018-08-29 08:00:00 12.7 3 Noroeste 23 Norte 0 906.6 0.4 94
2018-08-29 07:00:00 12.5 3 Noroeste 11 Noroeste 0 906.3 -0.2 96
2018-08-29 06:00:00 13.2 3 Noroeste 10 Norte 0 906 -1 95
2018-08-29 05:00:00 14.1 4 Norte 13 Norte 0 906.2 -1.1 94
2018-08-29 04:00:00 14.9 5 Norte 18 Norte 0 906.5 -0.9 92
2018-08-29 03:00:00 14.7 4 Norte 14 Nordeste 0 907 -0.2 94
2018-08-29 02:00:00 14.9 0 Calma 15 Norte 0 907.3 0.5 94
2018-08-29 01:00:00 15.2 5 Norte 14 Norte 0 907.4 -0.1 93
2018-08-29 00:00:00 15.7 4 Noroeste 28 Norte 0 907.2 1.9 91
2018-08-28 23:00:00 17.3 5 Sudeste -- -- 0.6 906.8 2.7 86
2018-08-28 22:00:00 19.7 6 Sudeste 23 Este 0.2 907.5 3.1 79
2018-08-28 21:00:00 21.6 2 Norte 30 Sudeste 0 905.3 1 76
2018-08-28 20:00:00 24.6 8 Sudeste 41 Sudeste 0 904.1 -0.7 58
2018-08-28 19:00:00 26 4 Sudeste 22 Sur 0 904.4 -0.6 56
2018-08-28 18:00:00 27.6 4 Sudeste 17 Sur 0 904.3 -1.1 48
2018-08-28 17:00:00 28.6 6 Sudeste 30 Sudeste 0 904.8 -0.7 45
2018-08-28 16:00:00 28.6 5 Sudeste 25 Sudeste 0 905 -1.3 44
2018-08-28 15:00:00 28.5 7 Sudeste 23 Sudeste 0 905.4 -1.7 42
2018-08-28 14:00:00 29.4 4 Sudeste 18 Sur 0 905.5 -1.7 34
2018-08-28 13:00:00 28.6 6 Sudeste 17 Sudeste 0 906.3 -1.2 39
2018-08-28 12:00:00 24.9 3 Este 8 Sudeste 0 907.1 -0.4 49
2018-08-28 11:00:00 21.8 2 Norte 8 Norte 0 907.2 -0.5 57
2018-08-28 10:00:00 18.6 0 Calma 9 Noroeste 0 907.5 0 78
2018-08-28 09:00:00 14.5 2 Este 9 Noroeste 0 907.5 0.1 94
2018-08-28 08:00:00 13.1 2 Noroeste 15 Norte 0 907.7 0.2 95
2018-08-28 07:00:00 12.4 0 Calma 9 Noroeste 0 907.5 0.2 96
2018-08-28 06:00:00 12.7 0 Calma 8 Noroeste 0 907.4 -0.3 95
2018-08-28 05:00:00 13 0 Calma 8 Noroeste 0 907.5 -0.5 95
2018-08-28 04:00:00 13.3 0 Calma 8 Noroeste 0 907.3 -0.3 94
2018-08-28 03:00:00 13.6 2 Noroeste 5 Norte 0 907.7 0.4 93
2018-08-28 02:00:00 14.2 0 Calma 15 Sudeste 0 908 0.6 91
2018-08-28 01:00:00 15.1 4 Norte 14 Nordeste 0 907.6 0.4 89
2018-08-28 00:00:00 16 0 Calma 9 Noroeste 0 907.3 0.7 86
2018-08-27 23:00:00 16.9 2 Sudeste 11 Noroeste 0 907.4 1.6 82
2018-08-27 22:00:00 18.5 4 Noroeste 18 Nordeste 0 907.2 2.2 76
2018-08-27 21:00:00 19.4 2 Oeste 9 Noroeste 0 906.6 1.7 74
2018-08-27 20:00:00 21.3 2 Noroeste 10 Sur 0 905.8 1 66
2018-08-27 19:00:00 24.4 4 Sudeste 20 Sur 0 905 0.1 51
2018-08-27 18:00:00 28.6 7 Sudeste 23 Sudeste 0 904.9 -0.3 38
2018-08-27 17:00:00 29.4 7 Sudeste 24 Sur 0 904.8 -0.5 35
2018-08-27 16:00:00 29.7 7 Sudeste 25 Sur 0 904.9 -0.5 34
2018-08-27 15:00:00 29 10 Sudeste 36 Sur 0 905.2 -0.6 33
2018-08-27 14:00:00 28.5 8 Sudeste 32 Este 0 905.3 -0.7 33
2018-08-27 13:00:00 26.7 7 Sudeste 23 Este 0 905.4 -0.6 34
2018-08-27 12:00:00 24.4 6 Sudeste 20 Sudeste 0 905.8 -0.3 43
2018-08-27 11:00:00 18.9 3 Este 9 Este 0 906 0.1 59
2018-08-27 10:00:00 16.1 5 Noroeste 15 Nordeste 0 906 0.3 68
2018-08-27 09:00:00 11.3 0 Calma 6 Noroeste 0 906.1 0.7 96
2018-08-27 08:00:00 10.2 0 Calma 15 Norte 0 905.9 0.6 96
2018-08-27 07:00:00 10 2 Noroeste 7 Oeste 0 905.7 0.4 95
2018-08-27 06:00:00 10.4 0 Calma 6 Noroeste 0 905.4 -0.1 95
2018-08-27 05:00:00 10.7 0 Calma 8 Noroeste 0 905.3 0 95
2018-08-27 04:00:00 11 2 Noroeste 7 Oeste 0 905.3 0 94
2018-08-27 03:00:00 11.4 2 Oeste 15 Noroeste 0 905.5 0.1 93
2018-08-27 02:00:00 11.8 2 Este 8 Noroeste 0 905.3 0.2 91
2018-08-27 01:00:00 12.4 0 Calma 8 Noroeste 0 905.3 0.4 90
2018-08-27 00:00:00 13 0 Calma 12 Noroeste 0 905.4 1.2 88
2018-08-26 23:00:00 13.8 0 Calma 5 Noroeste 0 905.1 1.8 86
2018-08-26 22:00:00 15.2 0 Calma 7 Norte 0 904.9 1.9 80
2018-08-26 21:00:00 16.8 3 Norte 12 Norte 0 904.2 1.4 75
2018-08-26 20:00:00 18.5 4 Noroeste 13 Sur 0 903.3 0.6 67
2018-08-26 19:00:00 21.4 5 Sur 23 Sur 0 903 0.3 54
2018-08-26 18:00:00 24.6 6 Sudeste 27 Este 0 902.8 -0.2 45
2018-08-26 17:00:00 24.9 9 Sudeste 33 Este 0 902.7 -0.6 42
2018-08-26 16:00:00 25.1 10 Sudeste 30 Sur 0 902.7 -0.9 40
2018-08-26 15:00:00 24.9 9 Sudeste 32 Sudeste 0 903 -1.1 41
2018-08-26 14:00:00 23.8 9 Sudeste 30 Este 0 903.3 -1.4 40
2018-08-26 13:00:00 22.5 8 Sudeste 28 Este 0 903.6 -1.3 42
2018-08-26 12:00:00 21.4 10 Sudeste 27 Sur 0 904.1 -0.9 42
2018-08-26 11:00:00 16.4 5 Este 13 Este 0 904.7 -0.2 61
2018-08-26 10:00:00 13.1 3 Sudeste 6 Sur 0 904.9 0.5 74
2018-08-26 09:00:00 9.3 2 Este 4 Sudeste 0 905 0.9 96
2018-08-26 08:00:00 8 0 Calma 5 Noroeste 0 904.9 1.2 95
2018-08-26 07:00:00 8 3 Norte 6 Noroeste 0 904.4 0.5 95
2018-08-26 06:00:00 8.2 0 Calma 4 Norte 0 904.1 0.1 94
2018-08-26 05:00:00 8.7 0 Calma 6 Noroeste 0 903.7 -0.3 93
2018-08-26 04:00:00 9.2 2 Noroeste 9 Noroeste 0 903.9 -0.3 91
2018-08-26 03:00:00 9.9 0 Calma 14 Norte 0 904 -0.1 89
2018-08-26 02:00:00 10.6 0 Calma 6 Oeste 0 904 0.2 85
2018-08-26 01:00:00 11.6 3 Noroeste 10 Noroeste 0 904.2 0.6 81
2018-08-26 00:00:00 12.4 3 Noroeste 13 Noroeste 0 904.1 1.3 80
2018-08-25 23:00:00 13 0 Calma 5 Norte 0 903.8 1.6 77
2018-08-25 22:00:00 15.1 0 Calma 11 Noroeste 0 903.6 1.9 69
2018-08-25 21:00:00 17.6 3 Norte 18 Noroeste 0 902.8 1.1 55
2018-08-25 20:00:00 19.6 10 Noroeste 24 Noroeste 0 902.2 0.2 46
2018-08-25 19:00:00 21.3 3 Sudeste 24 Este 0 901.7 -0.6 40
2018-08-25 18:00:00 22.6 7 Sudeste 28 Sudeste 0 901.7 -0.8 37
2018-08-25 17:00:00 23 5 Sudeste 27 Este 0 902 -0.6 42
2018-08-25 16:00:00 23.9 8 Sudeste 31 Este 0 902.3 -0.4 44
2018-08-25 15:00:00 24 8 Sudeste 33 Este 0 902.5 -1 43
2018-08-25 14:00:00 22.7 7 Sudeste 34 Este 0 902.6 -1.5 49
2018-08-25 13:00:00 22.3 10 Este 30 Este 0 902.7 -1.5 48
2018-08-25 12:00:00 21.4 9 Sudeste 26 Sur 0 903.5 -0.9 49
2018-08-25 11:00:00 16.4 3 Este 12 Este 0 904.1 -0.4 59
2018-08-25 10:00:00 13.2 2 Este 11 Noroeste 0 904.2 -0.3 77
2018-08-25 09:00:00 9.2 0 Calma 8 Noroeste 0 904.4 -0.2 85
2018-08-25 08:00:00 7.8 0 Calma 8 Noroeste 0 904.5 -0.1 85
2018-08-25 07:00:00 7.7 2 Noroeste 12 Noroeste 0 904.5 -0.2 83
2018-08-25 06:00:00 8.1 0 Calma 11 Oeste 0 904.6 -0.1 86
2018-08-25 05:00:00 8.7 0 Calma 16 Norte 0 904.6 -0.5 83
2018-08-25 04:00:00 9.8 0 Calma 12 Noroeste 0 904.7 -0.8 82
2018-08-25 03:00:00 10.8 2 Oeste 13 Nordeste 0 904.7 -1.1 81
2018-08-25 02:00:00 12.2 4 Noroeste 17 Norte 0 905.1 -0.7 77
2018-08-25 01:00:00 13.2 4 Noroeste 19 Norte 0 905.5 -0.6 77
2018-08-25 00:00:00 14.6 4 Norte 21 Norte 0 905.8 0 71
2018-08-24 23:00:00 15.6 5 Norte 24 Norte 0 905.8 0.3 68
2018-08-24 22:00:00 17 10 Noroeste 27 Noroeste 0 906.1 1.3 62
2018-08-24 21:00:00 18.5 12 Noroeste 37 Noroeste 0 905.8 1.3 56
2018-08-24 20:00:00 19.5 14 Noroeste 39 Noroeste 0 905.5 1.2 52
2018-08-24 19:00:00 21.2 14 Noroeste 43 Noroeste 0 904.8 0.1 46
2018-08-24 18:00:00 22.7 15 Noroeste 35 Noroeste 0 904.5 -0.6 41
2018-08-24 17:00:00 24.9 16 Noroeste 35 Noroeste 0 904.3 -1.2 34
2018-08-24 16:00:00 25.3 14 Noroeste 36 Noroeste 0 904.7 -0.7 34
2018-08-24 15:00:00 24.8 13 Noroeste 32 Noroeste 0 905.1 -0.8 33
2018-08-24 14:00:00 25.1 16 Noroeste 37 Noroeste 0 905.5 -0.8 34
2018-08-24 13:00:00 24.8 14 Noroeste 31 Noroeste 0 905.4 -0.9 33
2018-08-24 12:00:00 22.7 6 Sudeste 15 Sur 0 905.9 -0.7 46
2018-08-24 11:00:00 17.3 3 Sudeste 14 Este 0 906.3 -0.5 57
2018-08-24 10:00:00 14.7 0 Calma 8 Noroeste 0 906.3 -0.1 69
2018-08-24 09:00:00 10.3 2 Nordeste 10 Norte 0 906.6 0.5 86
2018-08-24 08:00:00 8.7 2 Noroeste 7 Noroeste 0 906.8 0.5 89
2018-08-24 07:00:00 8.7 3 Norte 7 Noroeste 0 906.4 -0.3 87
2018-08-24 06:00:00 10 3 Noroeste 14 Norte 0 906.1 -0.8 86
2018-08-24 05:00:00 10.6 3 Noroeste 11 Noroeste 0 906.3 -0.8 88
2018-08-24 04:00:00 11.1 2 Norte 9 Noroeste 0 906.7 -0.8 91
2018-08-24 03:00:00 12.2 3 Norte 18 Norte 0 906.9 -0.8 88
2018-08-24 02:00:00 12.2 0 Calma 7 Noroeste 0 907.1 -0.5 91
2018-08-24 01:00:00 13 0 Calma 15 Norte 0 907.5 0.2 89
2018-08-24 00:00:00 13.9 2 Noroeste 10 Noroeste 0 907.7 1 87